createdAt,value
2023-04-10T00:01:51.349Z,18.95
2023-04-10T00:06:52.857Z,21.08
2023-04-10T00:11:55.581Z,21.63
2023-04-10T00:16:57.418Z,26.27
2023-04-10T00:22:07.601Z,23.05
2023-04-10T00:27:11.728Z,21.58
2023-04-10T00:32:11.746Z,20.30
2023-04-10T00:37:14.918Z,20.10
2023-04-10T00:42:14.714Z,20.58
2023-04-10T00:47:27.607Z,19.50
2023-04-10T00:52:35.482Z,20.77
2023-04-10T00:57:44.614Z,19.88
2023-04-10T01:02:48.235Z,19.00
2023-04-10T01:08:05.067Z,17.02
2023-04-10T01:13:24.777Z,16.98
2023-04-10T01:18:35.032Z,20.27
2023-04-10T01:24:22.230Z,20.70
2023-04-10T01:34:52.250Z,21.67
2023-04-10T01:40:02.840Z,21.60
2023-04-10T01:45:07.370Z,21.38
2023-04-10T01:50:11.167Z,21.48
2023-04-10T01:55:11.627Z,20.23
2023-04-10T02:00:30.219Z,22.33
2023-04-10T02:05:44.246Z,20.20
2023-04-10T02:10:56.588Z,21.40
2023-04-10T02:16:04.113Z,21.08
2023-04-10T02:39:59.012Z,21.23
2023-04-10T02:45:11.453Z,24.65
2023-04-10T02:50:23.988Z,22.33
2023-04-10T02:55:35.689Z,26.83
2023-04-10T03:00:49.844Z,26.75
2023-04-10T03:06:06.168Z,25.38
2023-04-10T03:11:42.389Z,26.60
2023-04-10T03:16:59.063Z,27.40
2023-04-10T03:22:32.817Z,29.35
2023-04-10T03:27:48.644Z,26.92
2023-04-10T03:33:01.481Z,26.35
2023-04-10T03:38:43.000Z,27.52
2023-04-10T03:44:23.354Z,26.13
2023-04-10T03:49:56.690Z,28.30
2023-04-10T03:55:28.530Z,25.23
2023-04-10T04:01:24.337Z,24.67
2023-04-10T04:06:57.750Z,26.33
2023-04-10T04:12:36.881Z,27.92
2023-04-10T04:17:52.831Z,29.05
2023-04-10T04:23:55.267Z,31.38
2023-04-10T04:40:35.023Z,32.60
2023-04-10T04:46:13.899Z,30.27
2023-04-10T04:51:55.537Z,33.00
2023-04-10T04:57:37.485Z,34.47
2023-04-10T05:03:13.783Z,28.17
2023-04-10T05:08:47.581Z,31.40
2023-04-10T05:47:52.193Z,29.65
2023-04-10T05:53:14.300Z,29.55
2023-04-10T05:58:43.737Z,29.90
2023-04-10T06:09:56.396Z,27.88
2023-04-10T06:15:06.968Z,31.08
2023-04-10T06:20:28.511Z,26.80
2023-04-10T06:25:43.581Z,32.85
2023-04-10T06:31:21.912Z,28.65
2023-04-10T06:36:29.462Z,31.48
2023-04-10T06:41:41.111Z,32.10
2023-04-10T06:47:13.782Z,30.38
2023-04-10T06:53:23.726Z,28.92
2023-04-10T06:58:13.469Z,30.83
2023-04-10T07:03:42.343Z,31.80
2023-04-10T07:23:03.034Z,31.55
2023-04-10T07:29:46.959Z,28.30
2023-04-10T07:41:26.086Z,28.63
2023-04-10T07:47:21.022Z,26.67
2023-04-10T07:53:47.252Z,26.05
2023-04-10T08:00:09.308Z,26.65
2023-04-10T08:06:33.247Z,27.40
2023-04-10T08:19:58.487Z,28.20
2023-04-10T08:26:06.410Z,26.23
2023-04-10T09:40:06.858Z,18.25
2023-04-10T09:45:54.672Z,19.10
2023-04-10T09:51:13.466Z,19.25
2023-04-10T09:56:24.358Z,16.35
2023-04-10T10:01:25.065Z,18.25
2023-04-10T10:06:46.981Z,15.93
2023-04-10T10:11:51.739Z,15.27
2023-04-10T10:17:08.756Z,14.93
2023-04-10T10:22:13.599Z,14.80
2023-04-10T10:27:45.015Z,14.25
2023-04-10T10:34:28.955Z,13.95
2023-04-10T10:40:14.308Z,12.77
2023-04-10T11:27:28.110Z,11.32
2023-04-10T11:45:17.566Z,10.52
2023-04-10T11:51:36.048Z,10.68
2023-04-10T11:57:32.481Z,9.38
2023-04-10T12:02:44.286Z,10.30
2023-04-10T12:08:14.476Z,10.02
2023-04-10T12:14:29.465Z,9.93
2023-04-10T12:19:56.916Z,8.77
2023-04-10T12:37:37.155Z,8.20
2023-04-10T12:50:24.740Z,7.55
2023-04-10T12:57:22.179Z,8.05
2023-04-10T13:02:50.017Z,9.15
2023-04-10T13:08:52.328Z,7.28
2023-04-10T13:14:02.346Z,7.53
2023-04-10T13:19:12.793Z,9.25
2023-04-10T13:24:20.803Z,9.30
2023-04-10T13:29:23.602Z,8.40
2023-04-10T13:34:29.171Z,8.32
2023-04-10T13:40:10.273Z,9.07
2023-04-10T13:45:52.702Z,7.32
2023-04-10T13:58:58.726Z,7.82
2023-04-10T14:04:28.909Z,7.90
2023-04-10T14:23:04.562Z,8.48
2023-04-10T14:28:44.715Z,8.65
2023-04-10T14:34:46.603Z,8.52
2023-04-10T14:41:00.764Z,9.35
2023-04-10T14:47:13.998Z,8.30
2023-04-10T15:13:53.639Z,9.35
2023-04-10T15:19:47.947Z,10.50
2023-04-10T15:26:26.633Z,8.88
2023-04-10T15:40:06.617Z,9.88
2023-04-10T16:14:24.669Z,10.02
2023-04-10T16:20:17.461Z,9.23
2023-04-10T16:39:02.859Z,9.77
2023-04-10T16:44:38.198Z,10.43
2023-04-10T16:49:58.050Z,11.60
2023-04-10T16:55:45.979Z,10.02
2023-04-10T17:01:38.951Z,10.82
2023-04-10T17:20:54.136Z,11.27
2023-04-10T17:45:57.785Z,12.18
2023-04-10T18:28:48.206Z,15.50
2023-04-10T18:49:14.651Z,16.08
2023-04-10T19:01:10.978Z,15.68
2023-04-10T19:07:19.066Z,15.13
2023-04-10T19:13:26.349Z,14.18
2023-04-10T19:32:23.336Z,14.27
2023-04-10T20:02:23.124Z,13.45
2023-04-10T20:39:40.665Z,10.50
2023-04-10T20:58:07.388Z,10.48
2023-04-10T21:03:40.544Z,11.38
2023-04-10T21:15:14.161Z,10.10
2023-04-10T21:26:08.103Z,10.07
2023-04-10T21:37:25.972Z,9.50
2023-04-10T21:42:58.927Z,9.98
2023-04-10T21:48:19.269Z,9.18
2023-04-10T21:53:33.920Z,9.50
2023-04-10T21:59:12.722Z,11.27
2023-04-10T22:04:16.521Z,9.35
2023-04-10T22:09:32.586Z,9.10
2023-04-10T22:14:45.282Z,8.75
2023-04-10T22:20:08.234Z,8.43
2023-04-10T22:25:15.949Z,9.95
2023-04-10T22:30:17.631Z,9.68
2023-04-10T22:35:38.087Z,10.45
2023-04-10T22:40:59.992Z,9.45
2023-04-10T22:46:10.476Z,9.40
2023-04-10T22:51:30.751Z,8.48
2023-04-10T22:56:40.328Z,9.88
2023-04-10T23:02:44.814Z,9.13
2023-04-10T23:14:25.745Z,8.60
2023-04-10T23:20:27.576Z,8.30
2023-04-10T23:26:10.335Z,7.00
2023-04-10T23:32:16.381Z,7.78
2023-04-10T23:37:44.212Z,9.10
2023-04-10T23:49:08.630Z,8.35
2023-04-10T23:54:32.220Z,8.98
